Time;durP1;ratioP1;P1;durP2;ratioP2;P2;SDS_P1;SDS_P2;PMS_P1;PMS_P2;Temp;Humidity;BMP_temperature;BMP_pressure;BME280_temperature;BME280_humidity;BME280_pressure;Samples;Min_cycle;Max_cycle;Signal;HPM_P1;HPM_P2
2023/07/15 00:01:29;;;;;;;;;;;27.00;99.90;;;;;;5114618;28;19956;-79
2023/07/15 00:03:55;;;;;;;;;;;27.00;99.90;;;;;;5114924;28;19986;-79
2023/07/15 00:06:22;;;;;;;;;;;27.00;99.90;;;;;;5095764;28;19904;-79
2023/07/15 00:08:48;;;;;;;;;;;26.90;99.90;;;;;;5114378;28;19911;-78
2023/07/15 00:11:20;;;;;;;;;;;26.90;99.90;;;;;;5114164;28;19925;-79
2023/07/15 00:13:45;;;;;;;;;;;27.00;99.90;;;;;;5114630;28;19903;-78
2023/07/15 00:16:11;;;;;;;;;;;26.90;99.90;;;;;;5113978;28;19915;-78
2023/07/15 00:18:37;;;;;;;;;;;27.00;99.90;;;;;;5095712;28;20355;-78
2023/07/15 00:21:16;;;;;;;;;;;26.80;99.90;;;;;;5113860;28;19904;-79
2023/07/15 00:23:42;;;;;;;;;;;26.80;99.90;;;;;;5113973;28;19904;-79
2023/07/15 00:26:08;;;;;;;;;;;26.80;99.90;;;;;;5114161;28;19929;-78
2023/07/15 00:28:33;;;;;;;;;;;26.80;99.90;;;;;;5113801;28;19910;-79
2023/07/15 00:30:59;;;;;;;;;;;26.90;99.90;;;;;;5114145;28;19904;-78
2023/07/15 00:33:26;;;;;;;;;;;26.80;99.90;;;;;;5095489;28;19911;-78
2023/07/15 00:35:52;;;;;;;;;;;26.70;99.90;;;;;;5095323;28;19994;-78
2023/07/15 00:38:18;;;;;;;;;;;26.50;99.90;;;;;;5113734;28;19904;-78
2023/07/15 00:40:47;;;;;;;;;;;26.30;99.90;;;;;;5114275;28;19911;-78
2023/07/15 00:43:31;;;;;;;;;;;26.00;99.90;;;;;;5113945;28;20359;-79
2023/07/15 00:46:15;;;;;;;;;;;26.00;99.90;;;;;;5114189;28;19910;-78
2023/07/15 00:48:46;;;;;;;;;;;25.90;99.90;;;;;;5113626;28;19903;-78
2023/07/15 00:51:12;;;;;;;;;;;25.90;99.90;;;;;;5095195;28;20347;-78
2023/07/15 00:53:38;;;;;;;;;;;25.70;99.90;;;;;;5114149;28;19998;-78
2023/07/15 00:56:04;;;;;;;;;;;25.70;99.90;;;;;;5113520;28;20010;-79
2023/07/15 00:58:30;;;;;;;;;;;25.70;99.90;;;;;;5113618;28;20326;-79
2023/07/15 01:00:56;;;;;;;;;;;25.70;99.90;;;;;;5095239;28;19957;-79
2023/07/15 01:03:22;;;;;;;;;;;25.70;99.90;;;;;;5115024;28;19925;-78
2023/07/15 01:05:47;;;;;;;;;;;25.70;99.90;;;;;;5099286;28;19998;-78
2023/07/15 01:08:13;;;;;;;;;;;25.70;99.90;;;;;;5117759;28;19953;-79
2023/07/15 01:10:41;;;;;;;;;;;25.80;99.90;;;;;;5117777;28;19964;-78
2023/07/15 01:13:19;;;;;;;;;;;25.80;99.90;;;;;;5118082;28;19908;-78
2023/07/15 01:15:46;;;;;;;;;;;25.70;99.90;;;;;;5117767;28;19919;-78
2023/07/15 01:18:12;;;;;;;;;;;25.60;99.90;;;;;;5099225;28;20018;-79
2023/07/15 01:20:38;;;;;;;;;;;25.50;99.90;;;;;;5117265;28;20010;-79
2023/07/15 01:23:04;;;;;;;;;;;25.40;99.90;;;;;;5099107;28;19926;-77
2023/07/15 01:25:30;;;;;;;;;;;25.50;99.90;;;;;;5117314;28;20002;-79
2023/07/15 01:27:56;;;;;;;;;;;25.50;99.90;;;;;;5098987;28;19904;-79
2023/07/15 01:30:21;;;;;;;;;;;25.50;99.90;;;;;;5117751;28;20245;-79
2023/07/15 01:32:48;;;;;;;;;;;25.50;99.90;;;;;;5098803;28;19926;-78
2023/07/15 01:35:17;;;;;;;;;;;25.60;99.90;;;;;;5098559;28;19908;-77
2023/07/15 01:37:43;;;;;;;;;;;25.60;99.90;;;;;;5117158;28;19904;-78
2023/07/15 01:40:09;;;;;;;;;;;25.60;99.90;;;;;;5117522;28;19904;-78
2023/07/15 01:42:35;;;;;;;;;;;25.60;99.90;;;;;;5117537;28;19903;-78
2023/07/15 01:45:04;;;;;;;;;;;25.60;99.90;;;;;;5116869;28;20373;-78
2023/07/15 01:47:30;;;;;;;;;;;25.60;99.90;;;;;;5116935;28;19943;-78
2023/07/15 01:49:56;;;;;;;;;;;25.70;99.90;;;;;;5117002;28;19904;-78
2023/07/15 01:52:21;;;;;;;;;;;25.70;99.90;;;;;;5116787;28;19907;-78
2023/07/15 01:54:47;;;;;;;;;;;25.80;99.90;;;;;;5117422;28;19904;-78
2023/07/15 01:57:13;;;;;;;;;;;25.80;99.90;;;;;;5116815;28;19912;-78
2023/07/15 01:59:39;;;;;;;;;;;25.90;99.90;;;;;;5117042;28;19910;-78
2023/07/15 02:02:05;;;;;;;;;;;26.10;99.90;;;;;;5116508;28;19916;-78
2023/07/15 02:04:30;;;;;;;;;;;26.20;99.90;;;;;;5116537;28;20404;-78
2023/07/15 02:06:56;;;;;;;;;;;26.20;99.90;;;;;;5116577;28;19976;-79
2023/07/15 02:09:23;;;;;;;;;;;26.20;99.90;;;;;;5116605;28;19910;-78
2023/07/15 02:11:49;;;;;;;;;;;26.10;99.90;;;;;;5116522;28;19908;-79
2023/07/15 02:14:15;;;;;;;;;;;26.00;99.90;;;;;;5116433;28;19910;-79
2023/07/15 02:16:40;;;;;;;;;;;25.90;99.90;;;;;;5097901;28;19916;-79
2023/07/15 02:19:06;;;;;;;;;;;25.90;99.90;;;;;;5116280;28;19986;-78
2023/07/15 02:21:32;;;;;;;;;;;25.80;99.90;;;;;;5116122;28;20343;-79
2023/07/15 02:24:01;;;;;;;;;;;25.70;99.90;;;;;;5116839;28;19926;-79
2023/07/15 02:26:28;;;;;;;;;;;25.70;99.90;;;;;;5097887;28;19903;-78
2023/07/15 02:28:55;;;;;;;;;;;25.60;99.90;;;;;;5116179;28;19935;-78
2023/07/15 02:31:20;;;;;;;;;;;25.60;99.90;;;;;;5098094;28;20316;-78
2023/07/15 02:33:46;;;;;;;;;;;25.60;99.90;;;;;;5098009;28;20407;-78
2023/07/15 02:36:13;;;;;;;;;;;25.60;99.90;;;;;;5115894;28;19912;-78
2023/07/15 02:38:40;;;;;;;;;;;25.50;99.90;;;;;;5097531;28;20263;-78
2023/07/15 02:41:06;;;;;;;;;;;25.60;99.90;;;;;;5115927;28;19903;-78
2023/07/15 02:43:32;;;;;;;;;;;25.60;99.90;;;;;;5097470;28;19914;-77
2023/07/15 02:45:58;;;;;;;;;;;25.60;99.90;;;;;;5097582;28;20006;-78
2023/07/15 02:48:24;;;;;;;;;;;25.70;99.90;;;;;;5115958;28;20248;-78
2023/07/15 02:50:53;;;;;;;;;;;25.70;99.90;;;;;;5115461;28;19914;-78
2023/07/15 02:53:20;;;;;;;;;;;25.90;99.90;;;;;;5097154;28;19911;-78
2023/07/15 02:55:45;;;;;;;;;;;25.90;99.90;;;;;;5116113;28;19912;-80
2023/07/15 02:58:14;;;;;;;;;;;25.90;99.90;;;;;;5097320;28;19926;-77
2023/07/15 03:00:40;;;;;;;;;;;25.90;99.90;;;;;;5115878;28;19907;-79
2023/07/15 03:03:07;;;;;;;;;;;25.80;99.90;;;;;;5115321;28;20428;-79
2023/07/15 03:05:33;;;;;;;;;;;25.80;99.90;;;;;;5115167;28;19904;-78
2023/07/15 03:07:59;;;;;;;;;;;25.70;99.90;;;;;;5115453;28;19994;-79
2023/07/15 03:10:26;;;;;;;;;;;25.70;99.90;;;;;;5115894;28;19987;-78
2023/07/15 03:12:51;;;;;;;;;;;25.80;99.90;;;;;;5115235;28;20257;-78
2023/07/15 03:15:17;;;;;;;;;;;25.90;99.90;;;;;;5115450;28;19907;-78
2023/07/15 03:17:43;;;;;;;;;;;25.90;99.90;;;;;;5115192;28;19908;-78
2023/07/15 03:20:19;;;;;;;;;;;25.80;99.90;;;;;;5115261;28;20296;-77
2023/07/15 03:22:46;;;;;;;;;;;25.80;99.90;;;;;;5096830;28;19904;-78
2023/07/15 03:25:11;;;;;;;;;;;25.70;99.90;;;;;;5114858;28;19907;-79
2023/07/15 03:27:38;;;;;;;;;;;25.70;99.90;;;;;;5114711;28;19903;-78
2023/07/15 03:30:06;;;;;;;;;;;25.60;99.90;;;;;;5115064;28;19925;-77
2023/07/15 03:32:31;;;;;;;;;;;25.60;99.90;;;;;;5096702;28;19904;-78
2023/07/15 03:34:57;;;;;;;;;;;25.60;99.90;;;;;;5096487;28;20282;-78
2023/07/15 03:37:23;;;;;;;;;;;25.60;99.90;;;;;;5115415;28;19973;-78
2023/07/15 03:39:52;;;;;;;;;;;25.60;99.90;;;;;;5114763;28;19908;-79
2023/07/15 03:42:18;;;;;;;;;;;25.60;99.90;;;;;;5115008;28;19910;-78
2023/07/15 03:44:43;;;;;;;;;;;25.60;99.90;;;;;;5114786;28;20282;-79
2023/07/15 03:47:09;;;;;;;;;;;25.60;99.90;;;;;;5114687;28;19931;-78
2023/07/15 03:49:35;;;;;;;;;;;25.60;99.90;;;;;;5114654;28;19910;-78
2023/07/15 03:52:01;;;;;;;;;;;25.50;99.90;;;;;;5114426;28;19908;-78
2023/07/15 03:54:26;;;;;;;;;;;25.60;99.90;;;;;;5114982;28;19904;-78
2023/07/15 03:56:52;;;;;;;;;;;25.60;99.90;;;;;;5114613;28;20051;-78
2023/07/15 03:59:18;;;;;;;;;;;25.70;99.90;;;;;;5114979;28;19903;-78
2023/07/15 04:01:44;;;;;;;;;;;25.80;99.90;;;;;;5114106;28;19908;-79
2023/07/15 04:04:11;;;;;;;;;;;25.80;99.90;;;;;;5114855;28;19903;-78
2023/07/15 04:06:37;;;;;;;;;;;25.80;99.90;;;;;;5114174;28;19904;-78
2023/07/15 04:09:05;;;;;;;;;;;25.80;99.90;;;;;;5114206;28;20335;-79
2023/07/15 04:11:31;;;;;;;;;;;25.90;99.90;;;;;;5114180;28;19907;-78
2023/07/15 04:13:57;;;;;;;;;;;25.90;99.90;;;;;;5114594;28;19943;-78
2023/07/15 04:16:23;;;;;;;;;;;25.90;99.90;;;;;;5095725;28;20004;-78
2023/07/15 04:18:49;;;;;;;;;;;25.90;99.90;;;;;;5114052;28;20045;-79
2023/07/15 04:21:14;;;;;;;;;;;25.90;99.90;;;;;;5095381;28;19942;-80
2023/07/15 04:23:40;;;;;;;;;;;25.90;99.90;;;;;;5095740;28;19904;-80
2023/07/15 04:26:07;;;;;;;;;;;25.90;99.90;;;;;;5114515;28;19911;-78
2023/07/15 04:28:33;;;;;;;;;;;25.90;99.90;;;;;;5114254;28;19949;-78
2023/07/15 04:30:59;;;;;;;;;;;25.90;99.90;;;;;;5095693;28;19908;-78
2023/07/15 04:33:25;;;;;;;;;;;26.00;99.90;;;;;;5095560;28;19937;-79
2023/07/15 04:35:51;;;;;;;;;;;26.10;99.90;;;;;;5113613;28;20386;-78
2023/07/15 04:38:17;;;;;;;;;;;26.20;99.90;;;;;;5113679;28;19910;-80
2023/07/15 04:40:43;;;;;;;;;;;26.30;99.90;;;;;;5113840;28;20007;-78
2023/07/15 04:43:09;;;;;;;;;;;26.30;99.90;;;;;;5113795;28;19993;-80
2023/07/15 04:45:35;;;;;;;;;;;26.30;99.90;;;;;;5114331;28;19988;-80
2023/07/15 04:48:01;;;;;;;;;;;26.40;99.90;;;;;;5114008;28;19907;-79
2023/07/15 04:50:26;;;;;;;;;;;26.40;99.90;;;;;;5113906;28;19903;-80
2023/07/15 04:52:52;;;;;;;;;;;26.60;99.90;;;;;;5113515;28;19908;-80
2023/07/15 04:55:18;;;;;;;;;;;26.80;99.90;;;;;;5114129;28;20410;-80
2023/07/15 04:57:44;;;;;;;;;;;26.90;99.90;;;;;;5113816;28;19953;-80
2023/07/15 05:00:13;;;;;;;;;;;26.90;99.90;;;;;;5113538;28;19903;-80
2023/07/15 05:02:38;;;;;;;;;;;27.10;99.90;;;;;;5091584;28;19916;-81
2023/07/15 05:05:05;;;;;;;;;;;27.40;99.90;;;;;;5091661;28;19904;-80
2023/07/15 05:07:32;;;;;;;;;;;27.50;99.90;;;;;;5091773;28;19912;-80
2023/07/15 05:09:58;;;;;;;;;;;27.70;99.90;;;;;;5093182;28;20320;-80
2023/07/15 05:12:24;;;;;;;;;;;28.50;99.90;;;;;;5093370;28;20373;-80
2023/07/15 05:14:50;;;;;;;;;;;29.60;99.90;;;;;;5093447;28;19907;-81
2023/07/15 05:17:16;;;;;;;;;;;30.60;99.90;;;;;;5093288;28;19957;-79
2023/07/15 05:19:41;;;;;;;;;;;31.70;99.90;;;;;;5093021;28;20447;-80
2023/07/15 05:22:07;;;;;;;;;;;32.60;99.90;;;;;;5092916;28;19904;-79
2023/07/15 05:24:33;;;;;;;;;;;33.70;99.90;;;;;;5092971;28;19986;-80
2023/07/15 05:26:59;;;;;;;;;;;34.60;99.90;;;;;;5093591;28;20353;-80
2023/07/15 05:29:25;;;;;;;;;;;34.90;99.90;;;;;;5093173;28;19939;-80
2023/07/15 05:31:50;;;;;;;;;;;35.70;99.90;;;;;;5093416;28;20002;-80
2023/07/15 05:34:16;;;;;;;;;;;35.80;99.90;;;;;;5091614;28;19911;-80
2023/07/15 05:36:42;;;;;;;;;;;36.50;99.90;;;;;;5092822;28;19970;-80
2023/07/15 05:39:08;;;;;;;;;;;36.80;99.90;;;;;;5092935;28;19991;-80
2023/07/15 05:41:34;;;;;;;;;;;37.50;99.90;;;;;;5091645;28;19972;-80
2023/07/15 05:44:00;;;;;;;;;;;37.30;99.90;;;;;;5092862;28;19954;-81
2023/07/15 05:46:25;;;;;;;;;;;37.60;99.90;;;;;;5091483;28;20377;-81
2023/07/15 05:48:51;;;;;;;;;;;38.60;99.90;;;;;;5093232;28;19998;-81
2023/07/15 05:51:17;;;;;;;;;;;39.30;99.90;;;;;;5096537;28;19949;-81
2023/07/15 05:53:43;;;;;;;;;;;39.70;99.50;;;;;;5096571;28;20279;-81
2023/07/15 05:56:09;;;;;;;;;;;40.10;98.70;;;;;;5096470;28;20048;-80
2023/07/15 05:58:34;;;;;;;;;;;39.90;98.30;;;;;;5096999;28;20360;-81
2023/07/15 06:01:00;;;;;;;;;;;40.40;97.90;;;;;;5096721;28;19904;-81
2023/07/15 06:03:26;;;;;;;;;;;40.90;96.70;;;;;;5095042;28;19919;-81
2023/07/15 06:05:52;;;;;;;;;;;40.90;95.90;;;;;;5096289;28;19904;-80
2023/07/15 06:08:18;;;;;;;;;;;40.50;95.90;;;;;;5096395;28;19904;-81
2023/07/15 06:10:44;;;;;;;;;;;41.20;95.40;;;;;;5095082;28;19911;-81
2023/07/15 06:13:10;;;;;;;;;;;41.10;95.10;;;;;;5096126;28;20287;-81
2023/07/15 06:15:38;;;;;;;;;;;41.50;94.70;;;;;;5095977;28;19908;-81
2023/07/15 06:18:04;;;;;;;;;;;42.70;93.40;;;;;;5096105;28;19908;-81
2023/07/15 06:20:30;;;;;;;;;;;42.50;92.70;;;;;;5095911;28;20375;-80
2023/07/15 06:22:56;;;;;;;;;;;43.00;91.90;;;;;;5075725;28;19905;-80
2023/07/15 06:25:22;;;;;;;;;;;43.40;91.20;;;;;;5075753;28;19908;-82
2023/07/15 06:27:47;;;;;;;;;;;43.00;90.70;;;;;;5076015;28;19911;-81
2023/07/15 06:30:13;;;;;;;;;;;42.30;90.10;;;;;;5075776;28;19904;-81
2023/07/15 06:32:39;;;;;;;;;;;42.80;89.50;;;;;;5075316;28;19977;-81
2023/07/15 06:35:06;;;;;;;;;;;42.80;89.00;;;;;;5075777;28;19904;-81
2023/07/15 06:37:32;;;;;;;;;;;43.00;88.90;;;;;;5075435;28;19954;-81
2023/07/15 06:39:57;;;;;;;;;;;43.70;86.90;;;;;;5075513;28;19912;-82
2023/07/15 06:42:23;;;;;;;;;;;43.40;85.20;;;;;;5075364;28;20322;-81
2023/07/15 06:44:49;;;;;;;;;;;42.10;86.40;;;;;;5075414;28;20272;-82
2023/07/15 06:47:15;;;;;;;;;;;42.40;85.80;;;;;;5090871;28;19904;-82
2023/07/15 06:49:41;;;;;;;;;;;42.30;84.70;;;;;;5075254;28;19904;-80
2023/07/15 06:52:06;;;;;;;;;;;42.20;85.90;;;;;;5088435;28;19904;-82
2023/07/15 06:54:32;;;;;;;;;;;43.40;84.10;;;;;;5094863;28;20302;-82
2023/07/15 06:56:58;;;;;;;;;;;42.30;84.70;;;;;;5095215;28;19919;-81
2023/07/15 06:59:24;;;;;;;;;;;41.90;85.10;;;;;;5094119;28;19951;-81
2023/07/15 07:01:50;;;;;;;;;;;42.30;83.90;;;;;;5099553;28;20355;-80
2023/07/15 07:04:15;;;;;;;;;;;42.60;85.20;;;;;;5116036;28;19957;-80
2023/07/15 07:06:41;;;;;;;;;;;43.10;83.10;;;;;;5115478;28;19908;-81
2023/07/15 07:09:07;;;;;;;;;;;42.90;83.00;;;;;;5115575;28;19904;-79
2023/07/15 07:11:33;;;;;;;;;;;42.20;84.80;;;;;;5115413;28;19912;-80
2023/07/15 07:13:59;;;;;;;;;;;41.90;83.80;;;;;;5115529;28;19904;-80
2023/07/15 07:16:24;;;;;;;;;;;42.20;82.40;;;;;;5115884;28;19911;-80
2023/07/15 07:18:50;;;;;;;;;;;43.10;80.50;;;;;;5115636;28;20038;-79
2023/07/15 07:21:16;;;;;;;;;;;43.70;77.80;;;;;;5115245;28;20355;-80
2023/07/15 07:23:42;;;;;;;;;;;44.10;74.80;;;;;;5115398;28;19954;-80
2023/07/15 07:26:08;;;;;;;;;;;43.90;70.20;;;;;;5115887;28;20335;-81
2023/07/15 07:28:44;;;;;;;;;;;43.80;65.40;;;;;;5115495;28;19912;-79
2023/07/15 07:31:10;;;;;;;;;;;42.90;63.90;;;;;;5115642;28;20347;-80
2023/07/15 07:33:36;;;;;;;;;;;42.30;61.20;;;;;;5115035;28;19904;-80
2023/07/15 07:36:03;;;;;;;;;;;42.20;58.90;;;;;;5114979;28;19911;-79
2023/07/15 07:38:29;;;;;;;;;;;41.50;62.10;;;;;;5114952;28;19903;-79
2023/07/15 07:41:02;;;;;;;;;;;40.50;62.50;;;;;;5114871;28;20323;-78
2023/07/15 07:43:28;;;;;;;;;;;40.40;59.10;;;;;;5115336;28;19903;-79
2023/07/15 07:45:53;;;;;;;;;;;40.60;56.60;;;;;;5114734;28;19904;-79
2023/07/15 07:48:25;;;;;;;;;;;40.60;55.60;;;;;;5115132;28;20360;-79
2023/07/15 07:50:51;;;;;;;;;;;40.20;57.10;;;;;;5114607;28;19954;-78
2023/07/15 07:53:17;;;;;;;;;;;39.60;57.90;;;;;;5114822;28;19911;-80
2023/07/15 07:55:43;;;;;;;;;;;39.40;59.70;;;;;;5114613;28;19907;-81
2023/07/15 07:58:09;;;;;;;;;;;39.20;67.50;;;;;;5114726;28;19903;-79
2023/07/15 08:00:34;;;;;;;;;;;37.80;73.50;;;;;;5114718;28;20327;-80
2023/07/15 08:03:00;;;;;;;;;;;38.00;75.10;;;;;;5114485;28;19919;-79
2023/07/15 08:05:26;;;;;;;;;;;38.40;74.40;;;;;;5114625;28;19911;-80
2023/07/15 08:07:52;;;;;;;;;;;38.40;76.00;;;;;;5114589;28;19953;-80
2023/07/15 08:10:17;;;;;;;;;;;38.60;77.30;;;;;;5096219;28;20351;-79
2023/07/15 08:12:45;;;;;;;;;;;38.80;77.00;;;;;;5113890;28;19927;-80
2023/07/15 08:15:11;;;;;;;;;;;39.00;78.40;;;;;;5114388;28;20280;-80
2023/07/15 08:17:37;;;;;;;;;;;39.00;79.20;;;;;;5114266;28;19912;-77
2023/07/15 08:20:03;;;;;;;;;;;38.30;80.20;;;;;;5114737;28;19904;-79
2023/07/15 08:22:29;;;;;;;;;;;38.70;79.90;;;;;;5114122;28;19904;-79
2023/07/15 08:24:54;;;;;;;;;;;38.20;80.10;;;;;;5114968;28;19956;-80
2023/07/15 08:27:20;;;;;;;;;;;37.80;81.90;;;;;;5114262;28;19911;-80
2023/07/15 08:29:47;;;;;;;;;;;37.90;82.70;;;;;;5114215;28;19903;-81
2023/07/15 08:32:13;;;;;;;;;;;38.00;83.50;;;;;;5114423;28;20263;-80
2023/07/15 08:34:39;;;;;;;;;;;38.50;82.70;;;;;;5114075;28;20336;-81
2023/07/15 08:37:05;;;;;;;;;;;37.90;83.30;;;;;;5113776;28;19911;-79
2023/07/15 08:39:31;;;;;;;;;;;37.40;85.40;;;;;;5114073;28;20020;-80
2023/07/15 08:41:57;;;;;;;;;;;37.40;86.60;;;;;;5114086;28;20363;-80
2023/07/15 08:44:23;;;;;;;;;;;36.70;88.20;;;;;;5113835;28;19916;-80
2023/07/15 08:46:51;;;;;;;;;;;36.90;88.60;;;;;;5095503;28;19950;-81
2023/07/15 08:49:17;;;;;;;;;;;37.30;88.50;;;;;;5114267;28;19904;-80
2023/07/15 08:51:44;;;;;;;;;;;37.70;87.60;;;;;;5113502;28;19910;-78
2023/07/15 08:54:10;;;;;;;;;;;37.40;88.70;;;;;;5113950;28;19914;-80
2023/07/15 08:56:37;;;;;;;;;;;37.40;88.90;;;;;;5113631;28;19912;-79
2023/07/15 08:59:06;;;;;;;;;;;37.30;87.80;;;;;;5114163;28;19998;-80
2023/07/15 09:01:38;;;;;;;;;;;37.00;88.20;;;;;;5113690;28;20251;-80
2023/07/15 09:04:04;;;;;;;;;;;36.60;87.60;;;;;;5113864;28;19916;-80
2023/07/15 09:06:30;;;;;;;;;;;36.60;87.50;;;;;;5113251;28;19910;-80
2023/07/15 09:08:56;;;;;;;;;;;36.50;89.30;;;;;;5113454;28;19904;-80
2023/07/15 09:11:22;;;;;;;;;;;36.50;90.20;;;;;;5113396;28;19953;-79
2023/07/15 09:13:48;;;;;;;;;;;36.50;90.50;;;;;;5114092;28;19904;-80
2023/07/15 09:16:14;;;;;;;;;;;36.40;90.60;;;;;;5113445;28;20362;-80
2023/07/15 09:18:40;;;;;;;;;;;36.50;90.10;;;;;;5096160;28;20375;-79
2023/07/15 09:21:08;;;;;;;;;;;36.90;90.30;;;;;;5113257;28;19904;-79
2023/07/15 09:23:36;;;;;;;;;;;36.90;90.20;;;;;;5113724;28;19911;-80
2023/07/15 09:26:02;;;;;;;;;;;36.60;90.60;;;;;;5118048;28;19950;-80
2023/07/15 09:28:28;;;;;;;;;;;36.50;90.80;;;;;;5117441;28;19903;-79
2023/07/15 09:30:54;;;;;;;;;;;36.10;91.40;;;;;;5117937;28;19904;-79
2023/07/15 09:33:30;;;;;;;;;;;36.20;91.40;;;;;;5099171;28;19908;-79
2023/07/15 09:35:56;;;;;;;;;;;36.20;91.10;;;;;;5117404;28;20381;-79
2023/07/15 09:38:22;;;;;;;;;;;35.70;90.70;;;;;;5117142;28;19912;-80
2023/07/15 09:40:49;;;;;;;;;;;35.70;90.30;;;;;;5098849;28;20245;-80
2023/07/15 09:43:15;;;;;;;;;;;35.40;90.00;;;;;;5117437;28;19910;-80
2023/07/15 09:45:41;;;;;;;;;;;35.50;89.50;;;;;;5098935;28;19949;-80
2023/07/15 09:48:07;;;;;;;;;;;35.80;88.00;;;;;;5117040;28;19907;-81
2023/07/15 09:50:34;;;;;;;;;;;35.40;88.30;;;;;;5098538;28;19932;-81
2023/07/15 09:53:00;;;;;;;;;;;35.40;89.10;;;;;;5117209;28;19903;-80
2023/07/15 09:55:30;;;;;;;;;;;35.60;89.50;;;;;;5117434;28;19911;-81
2023/07/15 09:58:14;;;;;;;;;;;35.30;90.20;;;;;;5116990;28;20005;-80
2023/07/15 10:00:46;;;;;;;;;;;35.50;89.20;;;;;;5117477;28;19904;-80
2023/07/15 10:03:17;;;;;;;;;;;35.60;88.30;;;;;;5116565;28;19957;-80
2023/07/15 10:05:44;;;;;;;;;;;35.20;88.80;;;;;;5116544;28;19903;-79
2023/07/15 10:08:10;;;;;;;;;;;34.90;90.50;;;;;;5116840;28;19911;-79
2023/07/15 10:10:36;;;;;;;;;;;35.00;90.40;;;;;;5116732;28;19903;-79
2023/07/15 10:13:02;;;;;;;;;;;35.20;90.20;;;;;;5117518;28;19939;-77
2023/07/15 10:15:28;;;;;;;;;;;34.90;91.20;;;;;;5116862;28;19908;-80
2023/07/15 10:17:53;;;;;;;;;;;34.80;91.30;;;;;;5116631;28;19953;-80
2023/07/15 10:20:22;;;;;;;;;;;34.80;91.20;;;;;;5117129;28;20314;-80
2023/07/15 10:22:49;;;;;;;;;;;34.70;91.00;;;;;;5116531;28;20444;-80
2023/07/15 10:25:17;;;;;;;;;;;35.00;90.60;;;;;;5116397;28;19904;-80
2023/07/15 10:27:43;;;;;;;;;;;34.70;90.10;;;;;;5116307;28;19935;-81
2023/07/15 10:30:28;;;;;;;;;;;34.60;90.50;;;;;;5116257;28;19950;-80
2023/07/15 10:33:09;;;;;;;;;;;34.40;90.30;;;;;;5116336;28;19903;-80
2023/07/15 10:35:41;;;;;;;;;;;34.30;90.40;;;;;;5115594;27;20275;-79
2023/07/15 10:38:20;;;;;;;;;;;34.20;90.50;;;;;;5116784;28;19908;-81
2023/07/15 10:40:49;;;;;;;;;;;34.40;90.60;;;;;;5116052;28;19904;-77
2023/07/15 10:43:18;;;;;;;;;;;34.50;89.30;;;;;;5116440;28;19904;-78
2023/07/15 10:45:49;;;;;;;;;;;34.50;90.40;;;;;;5116123;28;19911;-78
2023/07/15 10:48:15;;;;;;;;;;;34.30;91.20;;;;;;5116032;28;19903;-78
2023/07/15 10:50:41;;;;;;;;;;;34.30;92.00;;;;;;5115508;28;19904;-80
2023/07/15 10:53:26;;;;;;;;;;;34.30;92.20;;;;;;5115732;28;19904;-80
2023/07/15 10:56:01;;;;;;;;;;;34.40;92.50;;;;;;5097325;28;19912;-79
2023/07/15 10:58:27;;;;;;;;;;;34.40;91.90;;;;;;5115642;28;20257;-78
2023/07/15 11:01:00;;;;;;;;;;;34.40;91.60;;;;;;5115657;28;20339;-80
2023/07/15 11:03:27;;;;;;;;;;;34.60;91.30;;;;;;5115402;28;20363;-79
2023/07/15 11:05:56;;;;;;;;;;;34.70;91.10;;;;;;5115914;28;19914;-79
2023/07/15 11:08:22;;;;;;;;;;;34.50;91.30;;;;;;5116224;28;19903;-80
2023/07/15 11:10:49;;;;;;;;;;;34.80;90.80;;;;;;5115617;28;20390;-80
2023/07/15 11:13:16;;;;;;;;;;;34.50;91.40;;;;;;5097140;28;19904;-78
2023/07/15 11:15:45;;;;;;;;;;;34.50;91.30;;;;;;5115353;28;19915;-78
2023/07/15 11:18:18;;;;;;;;;;;34.50;91.90;;;;;;5115287;28;19959;-78
2023/07/15 11:20:48;;;;;;;;;;;34.60;91.20;;;;;;5115483;28;19911;-80
2023/07/15 11:23:14;;;;;;;;;;;34.60;91.40;;;;;;5115493;28;19907;-78
2023/07/15 11:25:40;;;;;;;;;;;34.60;91.50;;;;;;5115234;28;19904;-78
2023/07/15 11:28:06;;;;;;;;;;;34.50;91.60;;;;;;5115148;28;19911;-78
2023/07/15 11:30:36;;;;;;;;;;;34.30;91.20;;;;;;5115497;28;20484;-77
2023/07/15 11:33:03;;;;;;;;;;;34.40;91.30;;;;;;5115405;28;19904;-79
2023/07/15 11:35:35;;;;;;;;;;;34.70;90.40;;;;;;5115001;28;19926;-79
2023/07/15 11:38:10;;;;;;;;;;;34.70;91.20;;;;;;5096626;28;20011;-79
2023/07/15 11:40:37;;;;;;;;;;;34.60;91.40;;;;;;5114978;28;19910;-79
2023/07/15 11:43:06;;;;;;;;;;;34.60;91.60;;;;;;5114834;28;19927;-79
2023/07/15 11:45:32;;;;;;;;;;;34.60;91.50;;;;;;5115113;28;20040;-79
2023/07/15 11:47:58;;;;;;;;;;;34.60;92.30;;;;;;5114716;28;19946;-80
2023/07/15 11:50:27;;;;;;;;;;;34.70;93.20;;;;;;5115117;28;19904;-79
2023/07/15 11:52:55;;;;;;;;;;;35.00;93.70;;;;;;5114463;28;20205;-80
2023/07/15 11:55:27;;;;;;;;;;;34.90;94.00;;;;;;5114502;28;19935;-79
2023/07/15 11:57:53;;;;;;;;;;;34.70;94.90;;;;;;5096282;28;19933;-78
2023/07/15 12:00:26;;;;;;;;;;;34.30;96.20;;;;;;5114822;28;19904;-79
2023/07/15 12:02:52;;;;;;;;;;;34.50;95.50;;;;;;5114246;28;19959;-79
2023/07/15 12:05:18;;;;;;;;;;;34.60;96.70;;;;;;5114507;28;19903;-79
2023/07/15 12:07:48;;;;;;;;;;;34.60;96.70;;;;;;5095970;28;19911;-81
2023/07/15 12:10:14;;;;;;;;;;;34.50;97.50;;;;;;5095980;28;19904;-80
2023/07/15 12:12:40;;;;;;;;;;;34.90;97.50;;;;;;5114454;28;20024;-80
2023/07/15 12:15:06;;;;;;;;;;;34.80;97.70;;;;;;5114869;28;19904;-79
2023/07/15 12:17:32;;;;;;;;;;;34.90;98.10;;;;;;5095882;28;19916;-79
2023/07/15 12:19:58;;;;;;;;;;;34.70;98.40;;;;;;5114468;28;19910;-80
2023/07/15 12:22:24;;;;;;;;;;;34.80;98.20;;;;;;5095521;28;20327;-80
2023/07/15 12:24:49;;;;;;;;;;;35.10;98.60;;;;;;5114627;28;20259;-80
2023/07/15 12:27:15;;;;;;;;;;;35.10;97.90;;;;;;5114025;28;20359;-80
2023/07/15 12:29:41;;;;;;;;;;;34.70;99.00;;;;;;5113935;28;19903;-79
2023/07/15 12:32:07;;;;;;;;;;;34.50;98.90;;;;;;5095654;28;19903;-80
2023/07/15 12:34:33;;;;;;;;;;;34.50;98.90;;;;;;5113908;28;19968;-79
2023/07/15 12:36:59;;;;;;;;;;;34.70;98.60;;;;;;5113798;28;19919;-80
2023/07/15 12:39:24;;;;;;;;;;;34.70;97.30;;;;;;5113870;28;19951;-80
2023/07/15 12:41:50;;;;;;;;;;;34.60;98.30;;;;;;5113925;28;19914;-79
2023/07/15 12:44:16;;;;;;;;;;;34.60;99.10;;;;;;5114482;28;19904;-79
2023/07/15 12:46:42;;;;;;;;;;;34.60;98.60;;;;;;5095564;28;19912;-80
2023/07/15 12:49:08;;;;;;;;;;;34.30;99.10;;;;;;5114180;28;19903;-79
2023/07/15 12:51:33;;;;;;;;;;;34.40;99.60;;;;;;5095101;28;19911;-79
2023/07/15 12:53:59;;;;;;;;;;;34.50;99.60;;;;;;5095386;28;19947;-80
2023/07/15 12:56:25;;;;;;;;;;;34.50;99.20;;;;;;5113629;28;19918;-79
2023/07/15 12:58:51;;;;;;;;;;;34.80;98.80;;;;;;5117641;28;19947;-80
2023/07/15 13:01:17;;;;;;;;;;;34.90;97.90;;;;;;5120566;28;19956;-80
2023/07/15 13:03:42;;;;;;;;;;;35.00;97.60;;;;;;5120394;28;20090;-78
2023/07/15 13:06:08;;;;;;;;;;;35.00;97.30;;;;;;5120193;28;19904;-80
2023/07/15 13:08:36;;;;;;;;;;;35.10;97.50;;;;;;5120485;28;19904;-80
2023/07/15 13:11:02;;;;;;;;;;;35.20;97.10;;;;;;5120630;28;19904;-79
2023/07/15 13:13:28;;;;;;;;;;;35.20;97.60;;;;;;5120425;28;19903;-79
2023/07/15 13:15:54;;;;;;;;;;;35.10;98.00;;;;;;5120526;28;19914;-79
2023/07/15 13:18:20;;;;;;;;;;;35.30;98.80;;;;;;5120680;28;19903;-78
2023/07/15 13:20:46;;;;;;;;;;;35.30;98.90;;;;;;5120336;28;19926;-78
2023/07/15 13:23:12;;;;;;;;;;;34.80;99.20;;;;;;5120298;28;19958;-79
2023/07/15 13:25:37;;;;;;;;;;;34.90;99.10;;;;;;5120241;28;20447;-80
2023/07/15 13:28:04;;;;;;;;;;;35.00;99.80;;;;;;5120269;28;20275;-79
2023/07/15 13:30:29;;;;;;;;;;;34.70;99.90;;;;;;5120099;28;19904;-79
2023/07/15 13:32:55;;;;;;;;;;;34.70;99.20;;;;;;5120260;28;19911;-80
2023/07/15 13:35:21;;;;;;;;;;;34.40;99.10;;;;;;5120119;28;19911;-79
2023/07/15 13:37:47;;;;;;;;;;;34.20;99.10;;;;;;5120585;28;19917;-80
2023/07/15 13:40:13;;;;;;;;;;;34.10;98.30;;;;;;5121043;28;19907;-79
2023/07/15 13:42:38;;;;;;;;;;;34.50;98.30;;;;;;5101714;28;19904;-79
2023/07/15 13:45:04;;;;;;;;;;;34.60;98.00;;;;;;5120692;28;19925;-79
2023/07/15 13:47:30;;;;;;;;;;;34.70;97.50;;;;;;5120159;28;19908;-79
2023/07/15 13:49:56;;;;;;;;;;;34.90;96.10;;;;;;5120957;28;20304;-80
2023/07/15 13:52:23;;;;;;;;;;;35.10;95.90;;;;;;5119738;28;19999;-79
2023/07/15 13:54:49;;;;;;;;;;;35.00;95.90;;;;;;5120480;28;19935;-79
2023/07/15 13:57:15;;;;;;;;;;;34.90;94.60;;;;;;5119956;28;20134;-79
2023/07/15 13:59:40;;;;;;;;;;;34.70;94.60;;;;;;5120029;28;19904;-78
2023/07/15 14:02:06;;;;;;;;;;;35.00;92.90;;;;;;5119758;28;19922;-79
2023/07/15 14:04:32;;;;;;;;;;;35.10;93.20;;;;;;5119850;28;19910;-80
2023/07/15 14:06:58;;;;;;;;;;;35.30;93.50;;;;;;5119779;28;19904;-80
2023/07/15 14:09:24;;;;;;;;;;;34.90;94.40;;;;;;5118568;28;20015;-81
2023/07/15 14:11:49;;;;;;;;;;;35.10;94.70;;;;;;5116592;28;19910;-81
2023/07/15 14:14:16;;;;;;;;;;;35.30;94.00;;;;;;5116741;28;19949;-81